Time;durP1;ratioP1;P1;durP2;ratioP2;P2;SDS_P1;SDS_P2;PMS_P1;PMS_P2;Temp;Humidity;BMP_temperature;BMP_pressure;BME280_temperature;BME280_humidity;BME280_pressure;Samples;Min_cycle;Max_cycle;Signal;HPM_P1;HPM_P2
2021/12/07 00:01:11;;;;;;;6.22;1.38;;;20.70;99.90;;;;;;4984977;28;20076;-65
2021/12/07 00:03:39;;;;;;;3.78;1.25;;;20.80;99.90;;;;;;4995342;28;20056;-64
2021/12/07 00:06:08;;;;;;;4.15;1.67;;;21.00;99.90;;;;;;4995483;28;20372;-64
2021/12/07 00:08:39;;;;;;;4.50;1.60;;;21.40;99.90;;;;;;4994361;28;20081;-64
2021/12/07 00:11:08;;;;;;;5.60;1.30;;;21.70;99.90;;;;;;4993841;28;20084;-63
2021/12/07 00:13:38;;;;;;;5.47;1.48;;;21.90;99.90;;;;;;4995141;28;20069;-63
2021/12/07 00:16:08;;;;;;;3.08;1.30;;;22.00;99.90;;;;;;4995875;28;20051;-63
2021/12/07 00:18:38;;;;;;;2.83;1.45;;;22.10;99.90;;;;;;4995802;28;20029;-64
2021/12/07 00:21:07;;;;;;;3.17;1.50;;;22.30;99.90;;;;;;4994801;28;20030;-64
2021/12/07 00:23:36;;;;;;;4.80;1.05;;;22.40;99.90;;;;;;4994973;28;20022;-65
2021/12/07 00:26:05;;;;;;;4.97;1.40;;;22.50;99.90;;;;;;4995412;28;20062;-63
2021/12/07 00:28:33;;;;;;;3.38;1.38;;;22.50;99.90;;;;;;4994652;28;20033;-63
2021/12/07 00:31:10;;;;;;;5.70;1.10;;;22.60;99.90;;;;;;4993771;28;20497;-63
2021/12/07 00:33:51;;;;;;;3.65;1.60;;;22.80;99.90;;;;;;4994963;28;20406;-64
2021/12/07 00:36:19;;;;;;;3.50;0.93;;;22.90;99.90;;;;;;4992125;28;20058;-63
2021/12/07 00:38:47;;;;;;;3.40;1.38;;;22.90;99.90;;;;;;4995114;28;20467;-63
2021/12/07 00:41:15;;;;;;;2.92;1.27;;;23.10;99.90;;;;;;4994699;28;20036;-64
2021/12/07 00:43:43;;;;;;;4.00;1.00;;;23.10;99.90;;;;;;4994062;28;20034;-63
2021/12/07 00:46:11;;;;;;;4.63;1.35;;;23.10;99.90;;;;;;4994878;28;20026;-65
2021/12/07 00:48:39;;;;;;;5.57;1.42;;;23.30;99.90;;;;;;4994720;28;20033;-63
2021/12/07 00:51:07;;;;;;;1.85;0.98;;;23.30;99.90;;;;;;4995231;28;20463;-63
2021/12/07 00:53:35;;;;;;;1.63;1.10;;;23.50;99.90;;;;;;4995109;28;20066;-63
2021/12/07 00:56:05;;;;;;;2.50;0.90;;;23.70;99.90;;;;;;4994092;28;20088;-63
2021/12/07 00:58:34;;;;;;;5.03;1.67;;;23.70;99.90;;;;;;4994597;28;20024;-63
2021/12/07 01:01:13;;;;;;;5.03;1.35;;;23.90;99.90;;;;;;4991948;28;20042;-63
2021/12/07 01:03:41;;;;;;;4.05;1.10;;;24.10;99.90;;;;;;4985425;28;20475;-65
2021/12/07 01:25:11;;;;;;;4.72;1.08;;;25.40;99.90;;;;;;4992441;28;20042;-62
2021/12/07 01:27:39;;;;;;;3.35;1.20;;;25.40;99.90;;;;;;4991754;28;20542;-62
2021/12/07 01:30:34;;;;;;;2.67;1.10;;;25.60;99.90;;;;;;4989806;28;20030;-63
2021/12/07 01:33:30;;;;;;;2.00;1.00;;;25.70;99.90;;;;;;4993046;28;20023;-63
2021/12/07 01:36:09;;;;;;;4.70;0.90;;;25.90;99.90;;;;;;4991696;28;20513;-63
2021/12/07 01:41:43;;;;;;;2.60;1.08;;;26.10;99.90;;;;;;4991601;28;20022;-63
2021/12/07 01:44:26;;;;;;;2.80;1.10;;;26.30;99.90;;;;;;4991845;28;20459;-63
2021/12/07 02:00:39;;;;;;;;;;;26.90;99.90;;;;;;4994343;28;20073;-63
2021/12/07 02:03:07;;;;;;;1.95;1.13;;;26.80;99.90;;;;;;4993536;28;19936;-63
2021/12/07 02:05:35;;;;;;;2.80;0.65;;;27.00;99.90;;;;;;4993104;28;20104;-63
2021/12/07 02:08:04;;;;;;;1.58;0.80;;;27.20;99.90;;;;;;4992198;28;20037;-64
2021/12/07 02:10:32;;;;;;;1.80;0.60;;;27.40;99.90;;;;;;4991138;28;20522;-63
2021/12/07 02:13:07;;;;;;;3.00;1.13;;;27.40;99.90;;;;;;4992668;28;20073;-63
2021/12/07 02:15:35;;;;;;;1.40;0.67;;;27.20;99.90;;;;;;4992220;28;20809;-63
2021/12/07 02:18:02;;;;;;;1.38;0.80;;;27.30;99.90;;;;;;4993282;28;20101;-63
2021/12/07 02:20:32;;;;;;;2.38;1.10;;;27.60;99.90;;;;;;4993837;28;20089;-63
2021/12/07 02:23:00;;;;;;;1.50;1.00;;;27.80;99.90;;;;;;4992584;28;20030;-64
2021/12/07 02:25:28;;;;;;;1.77;0.90;;;28.00;99.90;;;;;;4993379;28;20406;-62
2021/12/07 02:27:56;;;;;;;1.60;0.90;;;28.20;99.90;;;;;;4993523;28;20439;-63
2021/12/07 02:30:25;;;;;;;1.98;0.77;;;28.30;99.90;;;;;;4993914;28;20071;-62
2021/12/07 02:32:55;;;;;;;3.03;0.60;;;28.20;99.90;;;;;;4992978;28;20117;-63
2021/12/07 02:35:26;;;;;;;1.48;0.65;;;28.00;99.90;;;;;;4993896;28;20073;-64
2021/12/07 02:37:56;;;;;;;1.55;0.73;;;27.70;99.90;;;;;;4993864;28;20432;-64
2021/12/07 02:40:24;;;;;;;2.45;0.80;;;27.10;99.90;;;;;;4993975;28;20034;-63
2021/12/07 02:42:53;;;;;;;2.80;0.88;;;26.70;99.90;;;;;;4993638;28;20126;-63
2021/12/07 02:45:23;;;;;;;1.08;0.70;;;26.70;99.90;;;;;;4993643;28;20029;-62
2021/12/07 02:47:51;;;;;;;1.70;0.73;;;26.70;99.90;;;;;;4993636;28;20522;-62
2021/12/07 02:50:19;;;;;;;3.15;1.05;;;26.70;99.90;;;;;;4993595;28;20026;-63
2021/12/07 02:52:47;;;;;;;2.58;1.08;;;27.00;99.90;;;;;;4993533;28;20033;-63
2021/12/07 02:55:15;;;;;;;2.00;0.90;;;27.60;99.90;;;;;;4993448;28;20479;-62
2021/12/07 02:57:44;;;;;;;2.35;1.08;;;28.00;99.90;;;;;;4993487;28;20046;-63
2021/12/07 03:00:18;;;;;;;3.20;1.10;;;28.20;99.90;;;;;;4993312;28;20383;-66
2021/12/07 03:02:55;;;;;;;1.30;0.80;;;27.90;99.90;;;;;;4993324;28;20495;-61
2021/12/07 03:05:45;;;;;;;1.52;1.08;;;27.50;99.90;;;;;;4993370;28;20073;-62
2021/12/07 03:27:31;;;;;;;;;;;26.50;99.90;;;;;;4988161;28;20053;-63
2021/12/07 03:29:59;;;;;;;2.72;0.95;;;27.30;99.90;;;;;;4991592;28;20405;-62
2021/12/07 03:32:26;;;;;;;1.60;0.70;;;27.70;99.90;;;;;;4991467;28;20027;-65
2021/12/07 03:34:54;;;;;;;2.13;0.77;;;27.90;99.90;;;;;;4991609;28;20129;-66
2021/12/07 03:37:22;;;;;;;1.15;0.68;;;28.10;99.90;;;;;;4993421;28;20027;-65
2021/12/07 03:39:50;;;;;;;5.85;0.80;;;28.40;99.90;;;;;;4991210;28;20031;-63
2021/12/07 03:42:17;;;;;;;1.15;0.73;;;28.40;99.90;;;;;;4992092;28;20034;-64
2021/12/07 03:44:45;;;;;;;0.88;0.65;;;28.50;99.90;;;;;;4992905;28;20109;-66
2021/12/07 03:47:13;;;;;;;1.42;0.60;;;28.60;99.90;;;;;;4991725;28;20042;-61
2021/12/07 03:49:40;;;;;;;0.98;0.57;;;28.80;99.90;;;;;;4993056;28;20098;-62
2021/12/07 03:52:08;;;;;;;1.65;0.70;;;28.80;99.90;;;;;;4990460;28;20037;-64
2021/12/07 03:54:36;;;;;;;2.15;0.75;;;29.00;99.90;;;;;;4992899;28;20033;-62
2021/12/07 03:57:04;;;;;;;0.52;0.30;;;29.20;99.90;;;;;;4993296;28;20029;-63
2021/12/07 03:59:32;;;;;;;1.63;0.63;;;29.20;99.90;;;;;;4993323;28;20044;-63
2021/12/07 04:02:01;;;;;;;2.40;0.60;;;29.20;99.90;;;;;;4992872;28;20054;-62
2021/12/07 04:04:28;;;;;;;2.13;0.90;;;28.90;99.90;;;;;;4990756;28;20511;-63
2021/12/07 04:06:56;;;;;;;1.35;0.70;;;28.30;98.70;;;;;;4993329;28;20055;-63
2021/12/07 04:09:24;;;;;;;3.35;0.68;;;27.80;99.90;;;;;;4993098;28;20034;-63
2021/12/07 04:11:51;;;;;;;0.75;0.50;;;27.20;99.90;;;;;;4993168;28;20023;-62
2021/12/07 04:14:19;;;;;;;8.27;1.08;;;27.00;99.90;;;;;;4993051;28;20026;-63
2021/12/07 04:16:47;;;;;;;2.03;0.85;;;26.80;99.90;;;;;;4993174;28;20026;-63
2021/12/07 04:19:14;;;;;;;2.42;0.75;;;26.60;99.90;;;;;;4993270;28;20068;-62
2021/12/07 04:21:42;;;;;;;0.85;0.50;;;26.40;99.90;;;;;;4987243;28;20034;-63
2021/12/07 04:24:10;;;;;;;2.33;0.85;;;26.20;99.90;;;;;;4991454;28;20023;-62
2021/12/07 04:26:38;;;;;;;0.95;0.70;;;26.00;99.90;;;;;;4988710;28;20479;-63
2021/12/07 04:29:06;;;;;;;1.98;0.98;;;25.80;99.90;;;;;;4994009;28;20471;-63
2021/12/07 04:31:34;;;;;;;3.97;0.70;;;25.60;99.90;;;;;;4991898;28;20054;-64
2021/12/07 04:34:02;;;;;;;1.70;0.73;;;25.30;99.90;;;;;;4991691;28;21376;-65
2021/12/07 04:36:30;;;;;;;1.00;0.80;;;25.00;99.90;;;;;;4989242;28;20468;-64
2021/12/07 04:38:57;;;;;;;1.77;0.85;;;24.80;99.90;;;;;;4992732;28;20026;-63
2021/12/07 04:41:31;;;;;;;4.15;1.15;;;24.50;99.90;;;;;;4995244;28;20496;-64
2021/12/07 04:44:00;;;;;;;1.20;1.08;;;24.00;99.90;;;;;;4995378;28;20037;-64
2021/12/07 04:46:42;;;;;;;4.20;1.42;;;23.80;99.90;;;;;;4989835;28;20027;-65
2021/12/07 04:49:42;;;;;;;2.85;1.40;;;23.40;99.90;;;;;;4992996;28;20026;-63
2021/12/07 04:57:43;;;;;;;3.15;1.45;;;21.80;99.90;;;;;;4995253;28;20081;-64
2021/12/07 05:00:18;;;;;;;2.65;1.52;;;21.50;99.90;;;;;;4994969;28;20026;-63
2021/12/07 05:02:51;;;;;;;;;;;21.30;99.90;;;;;;4995263;28;20030;-63
2021/12/07 05:05:20;;;;;;;4.35;1.75;;;21.30;99.90;;;;;;4994861;28;19956;-66
2021/12/07 05:07:52;;;;;;;4.32;1.73;;;21.30;99.90;;;;;;4986185;28;20109;-62
2021/12/07 05:16:11;;;;;;;4.75;2.25;;;21.00;99.90;;;;;;4984923;28;20080;-64
2021/12/07 05:40:06;;;;;;;5.53;2.53;;;20.80;99.90;;;;;;4994661;28;20029;-65
2021/12/07 05:42:37;;;;;;;4.50;2.67;;;20.80;99.90;;;;;;4992484;28;20085;-64
2021/12/07 05:45:08;;;;;;;4.53;2.60;;;20.80;99.90;;;;;;4994263;28;20024;-65
2021/12/07 05:47:36;;;;;;;5.10;2.38;;;20.80;99.90;;;;;;4994140;28;20034;-64
2021/12/07 05:50:06;;;;;;;6.82;2.33;;;20.80;99.90;;;;;;4993687;28;20034;-64
2021/12/07 05:52:33;;;;;;;5.97;2.97;;;20.70;99.90;;;;;;4994071;28;20428;-64
2021/12/07 05:55:01;;;;;;;4.28;2.00;;;20.80;99.90;;;;;;4993890;28;20344;-65
2021/12/07 05:57:30;;;;;;;4.70;2.20;;;20.80;99.90;;;;;;4991447;28;20361;-64
2021/12/07 05:59:57;;;;;;;3.72;2.13;;;20.80;99.90;;;;;;4993970;28;20018;-64
2021/12/07 06:02:25;;;;;;;3.08;1.67;;;20.80;99.90;;;;;;4993677;28;20057;-65
2021/12/07 06:04:53;;;;;;;4.40;1.83;;;20.70;99.90;;;;;;4993650;28;20069;-67
2021/12/07 06:07:21;;;;;;;5.72;2.15;;;20.70;99.90;;;;;;4993357;28;20407;-64
2021/12/07 06:09:48;;;;;;;3.05;1.67;;;20.60;99.90;;;;;;4985146;28;20088;-64
2021/12/07 06:12:16;;;;;;;4.93;2.50;;;20.60;99.90;;;;;;4984156;28;20142;-64
2021/12/07 06:14:44;;;;;;;8.93;1.95;;;20.50;99.90;;;;;;4982873;28;20034;-63
2021/12/07 06:17:13;;;;;;;4.40;1.88;;;20.50;99.90;;;;;;4984127;28;20069;-64
2021/12/07 06:19:41;;;;;;;6.05;1.60;;;20.40;99.90;;;;;;4984902;28;20400;-66
2021/12/07 06:22:09;;;;;;;3.90;1.20;;;20.30;99.90;;;;;;4999724;28;20026;-64
2021/12/07 06:24:37;;;;;;;3.38;1.10;;;20.10;99.90;;;;;;4984007;28;20034;-66
2021/12/07 06:27:05;;;;;;;3.28;1.27;;;20.00;99.90;;;;;;4982545;28;20110;-64
2021/12/07 06:29:32;;;;;;;2.60;1.35;;;19.90;99.90;;;;;;4984136;28;20022;-65
2021/12/07 06:32:00;;;;;;;5.10;1.08;;;19.90;99.90;;;;;;4984182;28;20031;-65
2021/12/07 06:34:28;;;;;;;4.43;1.42;;;19.90;99.90;;;;;;4990286;28;20125;-66
2021/12/07 06:36:56;;;;;;;2.47;1.30;;;19.90;99.90;;;;;;4991908;28;20026;-66
2021/12/07 06:39:24;;;;;;;5.70;1.85;;;19.80;99.90;;;;;;4990336;28;20449;-66
2021/12/07 06:41:52;;;;;;;2.65;1.08;;;19.80;99.90;;;;;;4992218;28;20034;-63
2021/12/07 06:44:19;;;;;;;2.17;1.23;;;19.80;99.90;;;;;;4992168;28;20487;-65
2021/12/07 06:46:50;;;;;;;4.93;0.98;;;19.80;99.90;;;;;;4992098;28;20111;-66
2021/12/07 06:49:20;;;;;;;3.58;1.17;;;19.80;99.90;;;;;;4992442;28;20034;-63
2021/12/07 06:51:48;;;;;;;1.88;0.95;;;19.80;99.90;;;;;;4992085;28;20105;-67
2021/12/07 06:54:16;;;;;;;5.78;1.65;;;19.90;99.90;;;;;;4992004;28;20042;-67
2021/12/07 06:56:45;;;;;;;2.05;1.15;;;19.90;99.90;;;;;;4991898;28;20036;-66
2021/12/07 06:59:12;;;;;;;2.75;1.45;;;19.90;99.90;;;;;;4992008;28;20092;-66
2021/12/07 07:01:40;;;;;;;3.13;1.00;;;19.90;99.90;;;;;;4991566;28;20150;-66
2021/12/07 07:04:08;;;;;;;2.28;1.23;;;19.90;99.90;;;;;;4991981;28;20037;-67
2021/12/07 07:06:37;;;;;;;3.85;1.15;;;19.90;99.90;;;;;;4991633;28;20031;-66
2021/12/07 07:09:05;;;;;;;4.22;1.35;;;19.90;99.90;;;;;;4991770;28;20018;-67
2021/12/07 07:11:33;;;;;;;4.68;1.35;;;19.90;99.90;;;;;;4991784;28;20360;-66
2021/12/07 07:14:01;;;;;;;9.15;1.83;;;19.90;99.90;;;;;;4991045;28;20034;-65
2021/12/07 07:16:30;;;;;;;6.10;1.70;;;20.00;99.90;;;;;;4991839;28;20487;-64
2021/12/07 07:18:58;;;;;;;2.75;1.30;;;20.00;99.90;;;;;;4991805;28;20034;-63
2021/12/07 07:21:25;;;;;;;5.13;1.92;;;19.90;99.90;;;;;;4991520;28;20030;-64
2021/12/07 07:23:54;;;;;;;6.32;1.35;;;19.90;99.90;;;;;;4991629;28;20491;-64
2021/12/07 07:26:22;;;;;;;2.70;1.13;;;19.90;99.90;;;;;;4991284;28;20357;-64
2021/12/07 07:28:50;;;;;;;3.92;1.20;;;19.90;99.90;;;;;;4991273;28;20022;-66
2021/12/07 07:31:17;;;;;;;5.45;1.65;;;19.90;99.90;;;;;;4990910;28;20380;-66
2021/12/07 07:33:45;;;;;;;2.95;1.40;;;19.90;99.90;;;;;;4991097;28;20117;-64
2021/12/07 07:36:13;;;;;;;3.38;1.48;;;19.90;99.90;;;;;;4991667;28;20026;-66
2021/12/07 07:38:41;;;;;;;2.03;0.98;;;19.90;99.90;;;;;;4991691;28;20022;-64
2021/12/07 07:41:08;;;;;;;2.42;1.30;;;19.90;99.90;;;;;;4991058;28;20030;-64
2021/12/07 07:43:36;;;;;;;4.82;1.45;;;19.90;99.90;;;;;;4991633;28;20450;-64
2021/12/07 07:46:04;;;;;;;2.28;1.42;;;19.90;99.90;;;;;;4991448;28;20550;-64
2021/12/07 07:48:32;;;;;;;3.42;1.50;;;19.80;99.90;;;;;;4991517;28;20026;-66
2021/12/07 07:51:01;;;;;;;1.70;1.23;;;19.80;99.90;;;;;;4991268;28;20415;-66
2021/12/07 07:53:28;;;;;;;3.05;1.48;;;19.70;99.90;;;;;;4987906;28;20073;-65
2021/12/07 07:55:56;;;;;;;1.63;0.93;;;19.70;99.90;;;;;;4991534;28;20448;-66
2021/12/07 07:58:24;;;;;;;2.83;1.40;;;19.70;99.90;;;;;;4991344;28;20062;-63
2021/12/07 08:00:52;;;;;;;3.28;1.33;;;19.70;99.90;;;;;;4991337;28;20042;-65
2021/12/07 08:03:19;;;;;;;3.53;1.20;;;19.80;99.90;;;;;;4991546;28;20042;-66
2021/12/07 08:05:47;;;;;;;4.68;1.23;;;19.80;99.90;;;;;;4991207;28;20062;-65
2021/12/07 08:08:15;;;;;;;4.80;1.83;;;19.80;99.90;;;;;;4990613;28;20108;-65
2021/12/07 08:10:43;;;;;;;3.47;1.20;;;19.80;99.90;;;;;;4991007;28;20030;-67
2021/12/07 08:13:11;;;;;;;4.68;1.38;;;19.80;99.90;;;;;;4991061;28;20360;-64
2021/12/07 08:15:42;;;;;;;8.60;1.55;;;19.80;99.90;;;;;;4994965;28;20030;-65
2021/12/07 08:18:11;;;;;;;3.95;1.30;;;19.70;99.90;;;;;;4992291;28;20050;-65
2021/12/07 08:20:41;;;;;;;2.95;1.42;;;19.70;99.90;;;;;;4995139;28;20101;-64
2021/12/07 08:23:09;;;;;;;4.20;1.20;;;19.70;99.90;;;;;;4993937;28;20031;-66
2021/12/07 08:25:41;;;;;;;2.33;1.35;;;19.60;99.90;;;;;;4995141;28;20030;-64
2021/12/07 08:28:11;;;;;;;1.73;1.25;;;19.70;99.90;;;;;;4994432;28;20023;-65
2021/12/07 08:30:41;;;;;;;3.15;1.20;;;19.60;99.90;;;;;;4995007;28;20167;-64
2021/12/07 08:33:09;;;;;;;3.15;1.58;;;19.50;99.90;;;;;;4994608;28;20474;-64
2021/12/07 08:35:37;;;;;;;3.40;1.83;;;19.50;99.90;;;;;;4994354;28;20029;-64
2021/12/07 08:38:06;;;;;;;1.83;1.13;;;19.40;99.90;;;;;;4995451;28;20064;-64
2021/12/07 08:40:38;;;;;;;4.40;1.42;;;19.40;99.90;;;;;;4998166;28;20360;-63
2021/12/07 08:43:11;;;;;;;1.63;1.30;;;19.40;99.90;;;;;;4992817;28;20094;-64
2021/12/07 08:45:41;;;;;;;5.82;1.65;;;19.40;99.90;;;;;;4994105;28;20018;-63
2021/12/07 08:48:09;;;;;;;3.63;1.27;;;19.30;99.90;;;;;;4993057;28;20109;-64
2021/12/07 08:50:37;;;;;;;3.65;1.38;;;19.30;99.90;;;;;;4993350;28;20093;-64
2021/12/07 08:53:08;;;;;;;2.55;1.50;;;19.30;99.90;;;;;;4992896;28;20057;-64
2021/12/07 09:01:23;;;;;;;6.07;1.42;;;19.10;99.90;;;;;;5001289;28;20046;-65
2021/12/07 09:03:53;;;;;;;1.90;1.20;;;19.10;99.90;;;;;;4993705;28;20072;-66
2021/12/07 09:06:22;;;;;;;5.72;1.55;;;19.00;99.90;;;;;;4993813;28;20026;-65
2021/12/07 09:08:50;;;;;;;3.53;1.45;;;19.00;99.90;;;;;;4993548;28;20034;-65
2021/12/07 09:11:19;;;;;;;4.47;1.35;;;19.00;99.90;;;;;;4993688;28;20026;-64
2021/12/07 09:13:47;;;;;;;1.27;1.00;;;19.00;99.90;;;;;;4992616;28;20053;-65
2021/12/07 09:16:17;;;;;;;2.67;1.70;;;19.00;99.90;;;;;;4992100;28;20034;-65
2021/12/07 09:18:46;;;;;;;5.53;1.45;;;19.00;99.90;;;;;;4990711;28;20022;-64
2021/12/07 09:21:15;;;;;;;3.53;1.00;;;18.90;99.90;;;;;;4992860;28;20097;-64
2021/12/07 09:23:43;;;;;;;3.45;1.38;;;18.90;99.90;;;;;;4990776;28;20118;-64
2021/12/07 09:26:11;;;;;;;4.65;1.60;;;18.90;99.90;;;;;;4992496;28;20035;-65
2021/12/07 09:28:41;;;;;;;2.17;1.17;;;18.90;99.90;;;;;;4993479;28;20383;-63
2021/12/07 09:31:10;;;;;;;2.28;1.30;;;18.90;99.90;;;;;;4992064;28;20549;-64
2021/12/07 09:33:40;;;;;;;4.18;1.25;;;18.80;99.90;;;;;;4993266;28;20464;-65
2021/12/07 09:36:11;;;;;;;3.42;1.50;;;18.80;99.90;;;;;;4992649;28;20014;-64
2021/12/07 09:38:40;;;;;;;3.72;1.42;;;18.80;99.90;;;;;;4993355;28;20030;-64
2021/12/07 09:41:10;;;;;;;3.08;1.25;;;18.80;99.90;;;;;;4993140;28;20470;-65
2021/12/07 09:43:38;;;;;;;5.20;1.63;;;18.80;99.90;;;;;;4993185;28;20073;-65
2021/12/07 09:46:08;;;;;;;4.15;1.38;;;18.70;99.90;;;;;;4992499;28;20077;-65
2021/12/07 09:48:36;;;;;;;2.70;1.25;;;18.80;99.90;;;;;;4992972;28;20046;-65
2021/12/07 09:51:07;;;;;;;5.10;1.55;;;18.70;99.90;;;;;;4992258;28;20111;-64
2021/12/07 09:53:35;;;;;;;2.95;1.30;;;18.70;99.90;;;;;;4992052;28;20022;-65
2021/12/07 09:56:05;;;;;;;3.65;1.10;;;18.70;99.90;;;;;;4992199;28;20034;-65
2021/12/07 09:58:34;;;;;;;2.65;1.30;;;18.70;99.90;;;;;;4993035;28;20034;-64
2021/12/07 10:01:02;;;;;;;1.50;1.13;;;18.60;99.90;;;;;;4992482;28;20050;-63
2021/12/07 10:03:30;;;;;;;4.15;1.35;;;18.60;99.90;;;;;;4992407;28;20049;-64
2021/12/07 10:05:58;;;;;;;1.85;1.20;;;18.60;99.90;;;;;;4992745;28;20030;-63
2021/12/07 10:08:25;;;;;;;4.28;1.25;;;18.50;99.90;;;;;;4992462;28;20050;-65
2021/12/07 10:10:59;;;;;;;3.03;1.35;;;18.50;99.90;;;;;;4992225;28;20061;-63
2021/12/07 10:13:29;;;;;;;1.77;1.40;;;18.40;99.90;;;;;;4992576;28;20030;-65
2021/12/07 10:16:00;;;;;;;2.38;1.23;;;18.40;99.90;;;;;;4992147;28;20093;-63
2021/12/07 10:18:31;;;;;;;3.00;1.60;;;18.40;99.90;;;;;;4991838;28;20072;-63
2021/12/07 10:21:03;;;;;;;2.05;1.38;;;18.30;99.90;;;;;;4991586;28;20053;-63
2021/12/07 10:24:07;;;;;;;3.13;1.20;;;18.30;99.90;;;;;;4990520;28;20427;-63
2021/12/07 10:26:39;;;;;;;2.50;1.20;;;18.30;99.90;;;;;;4993996;28;20041;-63
2021/12/07 10:29:09;;;;;;;1.75;1.15;;;18.30;99.90;;;;;;4991888;28;20026;-63
2021/12/07 10:31:36;;;;;;;2.67;1.30;;;18.30;99.90;;;;;;4992095;28;20105;-63
2021/12/07 10:34:11;;;;;;;1.88;1.17;;;18.40;99.90;;;;;;4992517;28;20483;-63
2021/12/07 10:36:45;;;;;;;2.38;1.42;;;18.40;99.90;;;;;;4992273;28;20027;-64
2021/12/07 10:39:26;;;;;;;1.45;1.05;;;18.40;99.90;;;;;;4992429;28;20097;-63
2021/12/07 10:42:30;;;;;;;3.05;1.48;;;18.40;99.90;;;;;;4991839;28;20490;-64
2021/12/07 10:45:02;;;;;;;7.15;1.30;;;18.40;99.90;;;;;;4980290;28;20038;-63
2021/12/07 10:47:30;;;;;;;2.85;1.30;;;18.40;99.90;;;;;;4992690;28;20388;-63
2021/12/07 10:50:04;;;;;;;2.55;1.50;;;18.40;99.90;;;;;;4992235;28;20060;-64
2021/12/07 10:52:38;;;;;;;3.00;1.58;;;18.30;99.90;;;;;;4992652;28;20037;-63
2021/12/07 10:55:16;;;;;;;2.45;1.20;;;18.30;99.90;;;;;;4992645;28;20038;-64
2021/12/07 10:57:54;;;;;;;3.75;1.63;;;18.30;99.90;;;;;;4992368;28;20102;-65
2021/12/07 11:00:36;;;;;;;4.70;1.40;;;18.20;99.90;;;;;;4992348;28;20041;-63
2021/12/07 11:03:08;;;;;;;3.13;1.00;;;18.20;99.90;;;;;;4992231;28;20065;-63
2021/12/07 11:05:46;;;;;;;3.45;1.08;;;18.20;99.90;;;;;;4992193;28;20037;-63
2021/12/07 11:08:15;;;;;;;2.72;1.15;;;18.20;99.90;;;;;;4991869;28;20113;-63
2021/12/07 11:10:48;;;;;;;3.00;1.20;;;18.20;99.90;;;;;;4992091;28;20467;-63
2021/12/07 11:13:22;;;;;;;2.00;1.20;;;18.20;99.90;;;;;;4992162;28;20423;-63
2021/12/07 11:16:06;;;;;;;2.45;1.35;;;18.20;99.90;;;;;;4991583;28;20097;-63
2021/12/07 11:18:37;;;;;;;12.00;1.73;;;18.20;99.90;;;;;;4991894;28;20536;-64
2021/12/07 11:21:08;;;;;;;2.38;1.23;;;18.20;99.90;;;;;;4992319;28;20026;-63
2021/12/07 11:23:52;;;;;;;1.25;0.90;;;18.20;99.90;;;;;;4992332;28;20022;-64
2021/12/07 11:31:50;;;;;;;4.68;1.33;;;18.10;99.90;;;;;;4991539;28;20085;-63
2021/12/07 11:34:37;;;;;;;3.60;1.30;;;18.10;99.90;;;;;;4992114;28;20038;-65
2021/12/07 11:37:08;;;;;;;2.47;1.02;;;18.10;99.90;;;;;;4991316;28;20015;-63
2021/12/07 11:39:49;;;;;;;1.75;1.30;;;18.10;99.90;;;;;;4989396;28;20023;-63
2021/12/07 11:42:23;;;;;;;3.13;1.35;;;18.00;99.90;;;;;;4991619;28;21175;-63
2021/12/07 11:45:07;;;;;;;1.70;1.10;;;18.10;99.90;;;;;;4990613;28;20026;-63
2021/12/07 11:47:48;;;;;;;3.25;1.70;;;18.10;99.90;;;;;;4992473;28;20149;-63
2021/12/07 11:50:42;;;;;;;2.20;1.33;;;18.10;99.90;;;;;;4996071;28;20022;-62
2021/12/07 11:53:11;;;;;;;3.13;1.52;;;18.10;99.90;;;;;;4995637;28;20054;-62
2021/12/07 11:55:44;;;;;;;1.90;1.38;;;18.10;99.90;;;;;;4994968;28;20030;-63
2021/12/07 11:58:13;;;;;;;2.88;1.38;;;18.10;99.90;;;;;;4995407;28;20023;-62
2021/12/07 12:00:55;;;;;;;2.03;1.00;;;18.10;99.90;;;;;;4995821;28;20108;-63
2021/12/07 12:03:25;;;;;;;2.13;1.20;;;18.00;99.90;;;;;;4992952;28;20518;-64
2021/12/07 12:05:54;;;;;;;2.00;1.15;;;18.00;99.90;;;;;;4996028;28;20035;-64
2021/12/07 12:08:22;;;;;;;3.20;0.93;;;18.00;99.90;;;;;;4995165;28;20019;-63
2021/12/07 12:11:22;;;;;;;2.72;1.00;;;18.00;99.90;;;;;;4995941;28;20026;-64
2021/12/07 12:14:00;;;;;;;3.13;1.23;;;17.90;99.90;;;;;;4995535;28;20043;-63
2021/12/07 12:16:42;;;;;;;2.80;1.00;;;17.90;99.90;;;;;;4995900;28;20033;-63
2021/12/07 12:19:46;;;;;;;3.72;1.05;;;17.90;99.90;;;;;;4995683;28;20034;-63
2021/12/07 12:22:26;;;;;;;1.83;1.02;;;17.90;99.90;;;;;;4995103;28;20026;-63
2021/12/07 12:25:01;;;;;;;1.95;1.10;;;17.90;99.90;;;;;;4995096;28;20026;-63
2021/12/07 12:27:34;;;;;;;1.75;1.02;;;17.90;99.90;;;;;;4995499;28;20121;-66
2021/12/07 12:30:18;;;;;;;4.78;1.10;;;17.90;99.90;;;;;;4995234;28;20030;-63
2021/12/07 12:32:53;;;;;;;2.75;1.63;;;17.90;99.90;;;;;;4995541;28;20053;-62
2021/12/07 12:35:40;;;;;;;5.35;1.52;;;17.90;99.90;;;;;;4995303;28;20026;-62
2021/12/07 12:38:25;;;;;;;2.45;1.25;;;17.90;99.90;;;;;;4995324;28;20038;-62
2021/12/07 12:41:11;;;;;;;2.88;1.10;;;18.00;99.90;;;;;;4993907;28;20030;-62
2021/12/07 12:43:54;;;;;;;;;;;17.90;99.90;;;;;;4994835;28;20022;-64
2021/12/07 12:46:33;;;;;;;1.48;0.93;;;18.00;99.90;;;;;;4993420;28;19913;-62
2021/12/07 12:49:08;;;;;;;2.80;1.30;;;17.90;99.90;;;;;;4994061;28;20410;-63
2021/12/07 12:51:51;;;;;;;5.93;1.17;;;17.90;99.90;;;;;;4990226;28;20554;-62
2021/12/07 12:54:20;;;;;;;2.28;1.20;;;17.90;99.90;;;;;;4993745;28;20050;-64
2021/12/07 12:56:48;;;;;;;1.13;1.00;;;17.90;99.90;;;;;;4993975;28;20027;-62
2021/12/07 12:59:18;;;;;;;2.45;1.10;;;17.90;99.90;;;;;;4992986;28;20026;-63
2021/12/07 13:01:47;;;;;;;3.70;1.60;;;17.90;99.90;;;;;;4993563;28;20054;-63
2021/12/07 13:04:17;;;;;;;3.08;1.23;;;17.90;99.90;;;;;;4993795;28;20022;-63
2021/12/07 13:06:54;;;;;;;2.50;1.00;;;17.80;99.90;;;;;;4993952;28;20053;-63
2021/12/07 13:09:26;;;;;;;1.63;1.20;;;17.80;99.90;;;;;;4993810;28;20530;-64
2021/12/07 13:11:59;;;;;;;3.00;1.02;;;17.80;99.90;;;;;;4991739;28;20026;-63
2021/12/07 13:14:27;;;;;;;4.50;0.80;;;17.80;99.90;;;;;;4993735;28;20394;-63
2021/12/07 13:17:22;;;;;;;3.33;1.05;;;17.80;99.90;;;;;;4993793;28;20021;-63
2021/12/07 13:20:19;;;;;;;2.25;1.20;;;17.80;99.90;;;;;;4993479;28;20133;-62
2021/12/07 13:22:53;;;;;;;4.68;0.75;;;17.80;99.90;;;;;;4993156;28;20026;-62
2021/12/07 13:25:25;;;;;;;4.43;1.00;;;17.80;99.90;;;;;;4993466;28;20030;-63
2021/12/07 13:28:07;;;;;;;5.38;0.85;;;17.80;99.90;;;;;;4994403;28;20028;-63
2021/12/07 13:30:49;;;;;;;1.55;1.10;;;17.80;99.90;;;;;;4994446;28;20030;-62
2021/12/07 13:33:34;;;;;;;2.92;1.20;;;17.80;99.90;;;;;;4991727;28;20601;-63
2021/12/07 13:36:22;;;;;;;3.90;1.05;;;17.80;99.90;;;;;;4994411;28;20113;-63
2021/12/07 13:38:49;;;;;;;2.58;1.13;;;17.80;99.90;;;;;;4994194;28;20054;-63
2021/12/07 13:41:18;;;;;;;1.45;0.98;;;17.80;99.90;;;;;;4994226;28;20041;-63
2021/12/07 13:43:50;;;;;;;2.25;1.42;;;17.80;99.90;;;;;;4994162;28;20085;-63
2021/12/07 13:46:19;;;;;;;1.85;0.90;;;17.80;99.90;;;;;;4994200;28;20025;-63
2021/12/07 13:48:51;;;;;;;3.47;1.30;;;17.70;99.90;;;;;;4994927;28;20036;-63
2021/12/07 13:51:20;;;;;;;1.48;1.05;;;17.70;99.90;;;;;;4995688;28;20046;-63
2021/12/07 13:53:50;;;;;;;5.03;1.23;;;17.70;99.90;;;;;;4995098;28;20122;-63
2021/12/07 13:56:18;;;;;;;1.63;0.80;;;17.70;99.90;;;;;;4994787;28;20356;-67
2021/12/07 13:58:57;;;;;;;5.40;1.08;;;17.70;99.90;;;;;;4995940;28;20464;-66
2021/12/07 14:01:27;;;;;;;2.72;1.40;;;17.80;99.90;;;;;;4995656;28;20042;-66
2021/12/07 14:03:56;;;;;;;2.38;1.33;;;17.70;99.90;;;;;;4995876;28;20023;-62
2021/12/07 14:06:24;;;;;;;2.72;0.90;;;17.70;99.90;;;;;;4995740;28;20475;-66
2021/12/07 14:08:52;;;;;;;2.85;1.02;;;17.70;99.90;;;;;;4995617;28;20026;-63
2021/12/07 14:11:20;;;;;;;0.98;0.68;;;17.70;99.90;;;;;;4995629;28;20031;-62
2021/12/07 14:13:50;;;;;;;3.35;1.30;;;17.70;99.90;;;;;;4995556;28;20034;-65
2021/12/07 14:16:24;;;;;;;1.45;1.13;;;17.70;99.90;;;;;;4995675;28;20156;-65
2021/12/07 14:18:52;;;;;;;1.65;1.00;;;17.70;99.90;;;;;;4995742;28;20027;-64
2021/12/07 14:21:20;;;;;;;2.55;1.13;;;17.70;99.90;;;;;;4995280;28;20029;-66
2021/12/07 14:24:02;;;;;;;2.42;1.02;;;17.70;99.90;;;;;;4995413;28;20026;-66
2021/12/07 14:26:30;;;;;;;1.25;0.57;;;17.60;99.90;;;;;;4995366;28;20029;-66
2021/12/07 14:29:02;;;;;;;2.30;1.05;;;17.50;99.90;;;;;;4995407;28;20049;-65
2021/12/07 14:31:45;;;;;;;1.50;1.15;;;17.50;99.90;;;;;;4995229;28;20364;-66
2021/12/07 14:34:45;;;;;;;5.43;1.30;;;17.40;99.90;;;;;;4995040;28;20031;-66
2021/12/07 14:37:13;;;;;;;4.30;1.13;;;17.40;99.90;;;;;;4990904;28;20153;-63
2021/12/07 14:39:44;;;;;;;1.83;0.90;;;17.40;99.90;;;;;;5010169;28;20494;-63
2021/12/07 14:42:14;;;;;;;2.13;1.13;;;17.40;99.90;;;;;;4994960;28;20026;-62
2021/12/07 14:44:51;;;;;;;1.90;1.05;;;17.40;99.90;;;;;;4995002;28;20089;-64
2021/12/07 14:47:19;;;;;;;3.08;1.13;;;17.50;99.90;;;;;;4995299;28;20061;-64
2021/12/07 14:49:51;;;;;;;1.63;0.85;;;17.50;99.90;;;;;;4994961;28;20058;-65